Ana Sayfa
METAR-TAF:

METAR-TAF

Havaalanları :

Funafuti, Tuvalu

Enlem: 08-31S, Boylam: 179-13E, yükseklik: 1 m

Güncel hava durumu gözlemi

Rapor saat 19:00 UTC de 17 dakika önce yapıldı.
Rüzgar doğudan 13 kt
Sıcaklık 30°C
Nem 75%
Basınç 1008 hPa
Görüş mesafesi 10 km veya daha fazla
2000 ft yükseklikte az bulutlu

METAR: NGFU 191900Z 10013KT 9999 FEW020 30/25 Q1008

Saat: 07:17 (19:17 UTC)

Tahmin

Rapor saat 17:03 UTC de 2 saat ve 14 dakika önce yapıldı.
Ayın 19'si saat 18 UTC'den ayın 20'si saat 18 UTC'ye kadar geçerli Tahmin
Rüzgar doğudan 12 kt
Görüş mesafesi 10 km veya daha fazla
1800 ft yükseklikte parçalı bulutlu
4500 ft yükseklikte parçalı bulutlu
Olasılık 30% :
Geçici
ayın 20'si saat 04 UTC'den ayın 20'si saat 18 UTC'ye kadar
Görüş mesafesi: 5000 m
1500 ft yükseklikte parçalı çok bulutlu
1800 ft yükseklikte az bulutlu, Kümülonimbus.
gök gürültülü fırtına, yağmur

TAF: NGFU 191703Z 1918/2018 09012KT 9999 SCT018 SCT045 PROB30 TEMPO 2004/2018 5000 TSRA BKN015 FEW018CB

4.000'den fazla havaalanı için hava durumu gözlemleri ve tahminleri (METAR ve TAF raporları).

Kullanılabilir istasyonlar harita üzerinde sarı ve kırmızı noktalarla gösterilir.

İstasyonun adını görmek için fareyi noktanın üzerinde gezdirin.

Sonrasında hava gözlem ve tahminlerini görmek için tıklayın.

Haritayı değiştirmek için: yaklaştırmak için siyah artı işaretli yeşil düğmeye ve uzaklaştırmak için de eksi işaretli düğmeye hızla tıklayın; bitişik haritalar için yeşil okları kullanın.


METAR-TAF: